createdAt,value
2023-04-12T00:01:27.977Z,81.35
2023-04-12T00:03:56.251Z,81.20
2023-04-12T00:06:32.703Z,81.52
2023-04-12T00:09:01.156Z,81.41
2023-04-12T00:11:29.992Z,81.94
2023-04-12T00:13:59.222Z,81.40
2023-04-12T00:16:27.424Z,81.51
2023-04-12T00:18:55.690Z,82.32
2023-04-12T00:21:23.971Z,82.08
2023-04-12T00:23:52.119Z,82.12
2023-04-12T00:26:21.851Z,81.91
2023-04-12T00:28:49.752Z,82.58
2023-04-12T00:31:19.073Z,82.90
2023-04-12T00:33:47.112Z,82.45
2023-04-12T00:36:14.964Z,82.37
2023-04-12T00:38:43.384Z,82.04
2023-04-12T00:41:11.279Z,82.58
2023-04-12T00:43:40.573Z,82.91
2023-04-12T00:46:08.970Z,82.16
2023-04-12T00:48:38.587Z,82.42
2023-04-12T00:51:08.077Z,82.51
2023-04-12T00:53:36.651Z,82.85
2023-04-12T00:56:05.632Z,82.77
2023-04-12T00:58:33.619Z,82.63
2023-04-12T01:01:01.775Z,82.73
2023-04-12T01:03:30.950Z,83.07
2023-04-12T01:06:10.364Z,83.66
2023-04-12T01:08:59.394Z,84.63
2023-04-12T01:11:32.303Z,84.23
2023-04-12T01:14:07.444Z,84.25
2023-04-12T01:16:41.094Z,84.29
2023-04-12T01:19:35.223Z,85.42
2023-04-12T01:22:14.611Z,85.03
2023-04-12T01:24:50.915Z,85.17
2023-04-12T01:27:33.675Z,85.31
2023-04-12T01:30:04.493Z,84.51
2023-04-12T01:32:34.408Z,85.12
2023-04-12T01:35:04.651Z,85.24
2023-04-12T01:37:33.076Z,84.90
2023-04-12T01:40:02.125Z,85.81
2023-04-12T01:42:31.438Z,86.05
2023-04-12T01:44:59.590Z,85.75
2023-04-12T01:47:28.091Z,85.68
2023-04-12T01:50:05.069Z,85.99
2023-04-12T01:52:38.201Z,85.74
2023-04-12T01:55:07.891Z,85.51
2023-04-12T01:57:39.067Z,85.64
2023-04-12T02:00:11.007Z,85.41
2023-04-12T02:02:40.228Z,85.77
2023-04-12T02:05:10.447Z,85.57
2023-04-12T02:07:38.821Z,85.83
2023-04-12T02:10:07.720Z,86.30
2023-04-12T02:12:37.015Z,86.51
2023-04-12T02:15:08.219Z,86.31
2023-04-12T02:17:37.382Z,86.67
2023-04-12T02:20:09.737Z,86.73
2023-04-12T02:22:37.558Z,86.72
2023-04-12T02:25:06.442Z,87.03
2023-04-12T02:27:34.542Z,87.26
2023-04-12T02:30:04.571Z,88.03
2023-04-12T02:32:32.945Z,87.85
2023-04-12T02:35:02.946Z,87.98
2023-04-12T02:37:31.745Z,88.33
2023-04-12T02:40:02.701Z,87.94
2023-04-12T02:42:30.866Z,88.39
2023-04-12T02:44:58.704Z,88.45
2023-04-12T02:47:30.228Z,89.10
2023-04-12T02:49:58.798Z,89.38
2023-04-12T02:52:26.785Z,89.62
2023-04-12T02:54:54.674Z,89.58
2023-04-12T02:57:23.660Z,89.77
2023-04-12T02:59:53.246Z,90.04
2023-04-12T03:02:21.992Z,90.76
2023-04-12T03:04:52.055Z,91.21
2023-04-12T03:07:21.117Z,91.67
2023-04-12T03:09:50.444Z,91.54
2023-04-12T03:12:18.492Z,91.83
2023-04-12T03:14:46.869Z,92.04
2023-04-12T03:17:14.801Z,92.04
2023-04-12T03:19:42.865Z,92.54
2023-04-12T03:22:12.190Z,92.18
2023-04-12T03:24:42.960Z,92.03
2023-04-12T03:27:10.933Z,92.30
2023-04-12T03:29:38.978Z,92.84
2023-04-12T03:32:07.307Z,93.15
2023-04-12T03:34:35.614Z,93.14
2023-04-12T03:37:03.719Z,92.59
2023-04-12T03:39:32.976Z,92.83
2023-04-12T03:42:01.006Z,93.59
2023-04-12T03:44:29.125Z,93.41
2023-04-12T03:46:57.135Z,93.58
2023-04-12T03:49:25.100Z,93.63
2023-04-12T03:51:53.275Z,93.79
2023-04-12T03:54:22.053Z,93.88
2023-04-12T03:56:51.352Z,93.76
2023-04-12T03:59:19.367Z,93.83
2023-04-12T04:01:47.789Z,93.44
2023-04-12T04:04:15.889Z,93.53
2023-04-12T04:06:44.018Z,93.55
2023-04-12T04:09:11.875Z,93.81
2023-04-12T04:11:39.768Z,93.44
2023-04-12T04:14:09.186Z,93.59
2023-04-12T04:16:37.360Z,93.84
2023-04-12T04:19:05.357Z,93.31
2023-04-12T04:21:33.267Z,93.36
2023-04-12T04:24:02.414Z,93.24
2023-04-12T04:26:33.731Z,93.39
2023-04-12T04:29:04.886Z,93.36
2023-04-12T04:31:36.604Z,92.98
2023-04-12T04:34:06.037Z,93.15
2023-04-12T04:36:36.568Z,93.38
2023-04-12T04:39:05.383Z,93.33
2023-04-12T04:41:34.700Z,94.02
2023-04-12T04:44:04.700Z,94.13
2023-04-12T04:46:34.408Z,93.63
2023-04-12T04:49:02.596Z,94.44
2023-04-12T04:51:30.452Z,93.76
2023-04-12T04:53:58.722Z,94.04
2023-04-12T04:56:26.757Z,94.43
2023-04-12T04:58:56.806Z,94.55
2023-04-12T05:01:28.758Z,94.11
2023-04-12T05:03:59.610Z,93.84
2023-04-12T05:06:27.701Z,93.93
2023-04-12T05:08:56.828Z,94.30
2023-04-12T05:11:24.769Z,94.12
2023-04-12T05:13:52.816Z,94.19
2023-04-12T05:16:20.829Z,94.52
2023-04-12T05:18:48.696Z,93.88
2023-04-12T05:21:18.166Z,94.29
2023-04-12T05:23:47.880Z,93.81
2023-04-12T05:26:15.790Z,93.73
2023-04-12T05:28:43.797Z,94.04
2023-04-12T05:31:11.907Z,93.94
2023-04-12T05:33:39.878Z,93.20
2023-04-12T05:36:08.679Z,93.12
2023-04-12T05:38:38.052Z,93.53
2023-04-12T05:41:06.745Z,93.24
2023-04-12T05:43:37.658Z,93.06
2023-04-12T05:46:07.883Z,92.82
2023-04-12T05:48:36.223Z,92.21
2023-04-12T05:51:05.089Z,92.56
2023-04-12T05:53:33.196Z,91.59
2023-04-12T05:56:02.541Z,92.25
2023-04-12T05:58:30.457Z,90.96
2023-04-12T06:00:58.771Z,91.32
2023-04-12T06:03:27.090Z,91.06
2023-04-12T06:05:55.286Z,91.18
2023-04-12T06:08:23.340Z,90.75
2023-04-12T06:10:54.280Z,90.85
2023-04-12T06:13:23.534Z,90.76
2023-04-12T06:15:51.568Z,89.98
2023-04-12T06:18:19.635Z,89.61
2023-04-12T06:20:47.539Z,89.90
2023-04-12T06:23:15.492Z,89.91
2023-04-12T06:25:43.460Z,89.58
2023-04-12T06:28:11.446Z,89.29
2023-04-12T06:30:44.119Z,89.23
2023-04-12T06:33:12.910Z,88.57
2023-04-12T06:35:40.893Z,88.44
2023-04-12T06:38:08.982Z,88.21
2023-04-12T06:40:36.880Z,87.93
2023-04-12T06:43:04.734Z,87.40
2023-04-12T06:45:33.245Z,87.18
2023-04-12T06:48:02.617Z,87.32
2023-04-12T06:50:30.492Z,86.89
2023-04-12T06:52:58.577Z,86.61
2023-04-12T06:55:27.298Z,86.20
2023-04-12T06:57:55.543Z,86.00
2023-04-12T07:00:24.239Z,85.49
2023-04-12T07:02:52.332Z,87.49
2023-04-12T07:05:22.284Z,87.69
2023-04-12T07:07:50.268Z,86.72
2023-04-12T07:10:18.515Z,85.45
2023-04-12T07:12:46.774Z,84.41
2023-04-12T07:15:14.771Z,82.53
2023-04-12T07:17:42.782Z,80.76
2023-04-12T07:20:11.916Z,78.91
2023-04-12T07:22:41.427Z,76.13
2023-04-12T07:25:11.028Z,74.22
2023-04-12T07:27:38.889Z,72.57
2023-04-12T07:30:09.815Z,71.57
2023-04-12T07:32:37.777Z,70.79
2023-04-12T07:35:08.169Z,68.89
2023-04-12T07:37:37.094Z,67.89
2023-04-12T07:40:07.900Z,67.17
2023-04-12T07:42:35.788Z,66.78
2023-04-12T07:45:04.104Z,66.31
2023-04-12T07:47:32.984Z,65.93
2023-04-12T07:50:00.939Z,65.42
2023-04-12T07:52:28.920Z,64.71
2023-04-12T07:54:56.820Z,64.44
2023-04-12T07:57:26.399Z,63.52
2023-04-12T07:59:54.603Z,62.46
2023-04-12T08:02:26.217Z,61.22
2023-04-12T08:04:56.392Z,60.60
2023-04-12T08:07:24.252Z,60.02
2023-04-12T08:09:52.198Z,59.47
2023-04-12T08:12:21.636Z,59.16
2023-04-12T08:14:51.034Z,58.23
2023-04-12T08:17:18.907Z,57.56
2023-04-12T08:19:46.904Z,57.11
2023-04-12T08:22:14.876Z,56.25
2023-04-12T08:24:42.739Z,55.50
2023-04-12T08:27:13.938Z,54.77
2023-04-12T08:29:41.914Z,53.76
2023-04-12T08:32:12.714Z,52.92
2023-04-12T08:34:41.059Z,52.43
2023-04-12T08:37:08.940Z,51.95
2023-04-12T08:39:37.728Z,51.18
2023-04-12T08:42:06.129Z,50.68
2023-04-12T08:44:37.942Z,50.00
2023-04-12T08:47:07.923Z,49.81
2023-04-12T08:49:37.226Z,48.97
2023-04-12T08:52:06.882Z,48.60
2023-04-12T08:54:35.613Z,48.06
2023-04-12T08:57:06.648Z,47.42
2023-04-12T08:59:39.342Z,46.51
2023-04-12T09:02:07.355Z,46.42
2023-04-12T09:04:35.313Z,46.36
2023-04-12T09:07:05.845Z,46.04
2023-04-12T09:09:43.636Z,45.38
2023-04-12T09:12:12.694Z,45.43
2023-04-12T09:14:44.145Z,44.76
2023-04-12T09:17:25.115Z,44.59
2023-04-12T09:19:53.591Z,44.60
2023-04-12T09:22:34.866Z,44.17
2023-04-12T09:25:03.062Z,43.88
2023-04-12T09:27:30.917Z,43.87
2023-04-12T09:30:09.198Z,43.09
2023-04-12T09:32:37.442Z,42.91
2023-04-12T09:35:06.119Z,42.99
2023-04-12T09:37:36.898Z,42.43
2023-04-12T09:40:07.217Z,42.06
2023-04-12T09:42:36.470Z,41.95
2023-04-12T09:45:22.297Z,41.72
2023-04-12T09:47:50.778Z,41.59
2023-04-12T09:50:22.923Z,41.04
2023-04-12T09:52:54.022Z,40.51
2023-04-12T09:55:23.493Z,40.63
2023-04-12T09:57:53.073Z,40.30
2023-04-12T10:00:24.903Z,39.91
2023-04-12T10:02:54.477Z,40.00
2023-04-12T10:05:25.283Z,39.87
2023-04-12T10:07:55.403Z,40.30
2023-04-12T10:10:24.333Z,40.45
2023-04-12T10:12:52.869Z,40.18
2023-04-12T10:15:22.282Z,40.27
2023-04-12T10:17:52.976Z,40.28
2023-04-12T10:20:24.810Z,39.88
2023-04-12T10:22:59.822Z,39.81
2023-04-12T10:25:31.028Z,39.72
2023-04-12T10:28:14.333Z,39.98
2023-04-12T10:30:42.309Z,40.06
2023-04-12T10:33:15.134Z,39.50
2023-04-12T10:36:03.112Z,39.09
2023-04-12T10:38:46.652Z,38.72
2023-04-12T10:41:17.347Z,38.87
2023-04-12T10:43:46.425Z,38.86
2023-04-12T10:46:53.358Z,38.25
2023-04-12T10:49:21.523Z,38.85
2023-04-12T10:52:15.082Z,38.30
2023-04-12T10:54:44.618Z,38.97
2023-04-12T10:57:47.487Z,38.59
2023-04-12T11:00:16.961Z,38.91
2023-04-12T11:03:09.942Z,37.77
2023-04-12T11:06:09.159Z,38.18
2023-04-12T11:08:48.249Z,38.82
2023-04-12T11:11:22.765Z,38.39
2023-04-12T11:13:56.035Z,37.83
2023-04-12T11:16:24.148Z,38.12
2023-04-12T11:18:53.009Z,38.08
2023-04-12T11:21:22.607Z,37.87
2023-04-12T11:23:55.372Z,37.77
2023-04-12T11:26:25.684Z,37.79
2023-04-12T11:28:56.030Z,37.31
2023-04-12T11:31:24.560Z,37.60
2023-04-12T11:33:52.771Z,37.57
2023-04-12T11:36:20.956Z,37.37
2023-04-12T11:38:50.369Z,37.10
2023-04-12T11:41:18.679Z,36.91
2023-04-12T11:43:49.749Z,37.04
2023-04-12T11:46:18.614Z,36.98
2023-04-12T11:48:47.657Z,36.89
2023-04-12T11:51:20.703Z,36.50
2023-04-12T11:53:54.391Z,36.18
2023-04-12T11:56:22.603Z,36.05
2023-04-12T11:58:52.037Z,36.05
2023-04-12T12:01:21.584Z,36.12
2023-04-12T12:03:50.442Z,36.11
2023-04-12T12:06:20.754Z,35.57
2023-04-12T12:08:50.879Z,35.61
2023-04-12T12:11:21.561Z,35.54
2023-04-12T12:13:52.117Z,35.36
2023-04-12T12:16:25.499Z,34.90
2023-04-12T12:18:53.689Z,35.14
2023-04-12T12:21:22.086Z,34.92
2023-04-12T12:23:50.858Z,34.68
2023-04-12T12:26:22.915Z,34.16
2023-04-12T12:28:53.618Z,33.34
2023-04-12T12:31:23.542Z,32.59
2023-04-12T12:33:56.833Z,32.50
2023-04-12T12:36:33.288Z,32.14
2023-04-12T12:39:06.892Z,32.12
2023-04-12T12:41:36.170Z,31.16
2023-04-12T12:44:07.175Z,31.00
2023-04-12T12:49:06.228Z,31.40
2023-04-12T12:51:34.159Z,31.26
2023-04-12T12:54:02.066Z,30.79
2023-04-12T12:56:30.286Z,30.82
2023-04-12T12:58:58.548Z,30.96
2023-04-12T13:01:28.681Z,30.65
2023-04-12T13:03:59.371Z,30.53
2023-04-12T13:06:28.329Z,30.86
2023-04-12T13:08:56.622Z,30.50
2023-04-12T13:11:24.991Z,30.35
2023-04-12T13:13:52.800Z,30.06
2023-04-12T13:16:20.722Z,30.10
2023-04-12T13:18:50.260Z,30.13
2023-04-12T13:21:18.072Z,30.79
2023-04-12T13:23:45.927Z,30.92
2023-04-12T13:26:14.388Z,30.76
2023-04-12T13:28:42.235Z,30.44
2023-04-12T13:31:10.070Z,29.98
2023-04-12T13:33:38.401Z,29.36
2023-04-12T13:36:08.143Z,29.88
2023-04-12T13:38:36.080Z,29.57
2023-04-12T13:41:04.183Z,30.60
2023-04-12T13:43:31.999Z,31.74
2023-04-12T13:46:00.998Z,32.92
2023-04-12T13:48:29.127Z,33.96
2023-04-12T13:50:56.969Z,34.44
2023-04-12T13:53:26.368Z,35.15
2023-04-12T13:55:54.450Z,35.38
2023-04-12T13:58:22.289Z,34.03
2023-04-12T14:00:50.203Z,34.72
2023-04-12T14:03:21.418Z,34.76
2023-04-12T14:05:49.287Z,34.04
2023-04-12T14:08:17.211Z,33.50
2023-04-12T14:10:46.666Z,32.52
2023-04-12T14:13:14.576Z,32.03
2023-04-12T14:15:42.464Z,31.73
2023-04-12T14:18:10.390Z,31.83
2023-04-12T14:20:38.244Z,32.92
2023-04-12T14:23:08.023Z,34.18
2023-04-12T14:25:37.227Z,35.40
2023-04-12T14:28:06.448Z,36.28
2023-04-12T14:30:34.480Z,37.11
2023-04-12T14:33:02.679Z,37.81
2023-04-12T14:35:31.037Z,37.92
2023-04-12T14:37:58.890Z,36.74
2023-04-12T14:40:30.391Z,36.59
2023-04-12T14:42:58.343Z,37.29
2023-04-12T14:45:28.187Z,37.88
2023-04-12T14:47:56.395Z,38.42
2023-04-12T14:50:24.559Z,38.42
2023-04-12T14:52:52.443Z,39.01
2023-04-12T14:55:20.997Z,39.76
2023-04-12T14:57:48.858Z,40.79
2023-04-12T15:00:17.604Z,41.60
2023-04-12T15:02:48.988Z,42.43
2023-04-12T15:05:17.164Z,43.05
2023-04-12T15:07:46.161Z,44.04
2023-04-12T15:10:14.499Z,44.72
2023-04-12T15:12:42.660Z,45.07
2023-04-12T15:15:11.753Z,45.59
2023-04-12T15:17:39.889Z,45.66
2023-04-12T15:20:11.542Z,46.30
2023-04-12T15:22:41.213Z,46.47
2023-04-12T15:25:10.702Z,46.52
2023-04-12T15:27:38.635Z,46.75
2023-04-12T15:30:11.116Z,47.22
2023-04-12T15:32:42.405Z,47.07
2023-04-12T15:35:25.228Z,47.16
2023-04-12T15:37:55.233Z,47.65
2023-04-12T15:40:24.669Z,47.00
2023-04-12T15:42:52.541Z,45.94
2023-04-12T15:45:20.367Z,45.42
2023-04-12T15:47:48.738Z,45.06
2023-04-12T15:50:19.074Z,44.59
2023-04-12T15:52:47.372Z,44.33
2023-04-12T15:55:17.194Z,43.92
2023-04-12T15:57:45.042Z,44.16
2023-04-12T16:00:25.085Z,43.96
2023-04-12T16:02:56.255Z,43.86
2023-04-12T16:05:26.787Z,43.97
2023-04-12T16:07:54.940Z,43.58
2023-04-12T16:10:23.805Z,43.57
2023-04-12T16:12:53.246Z,44.09
2023-04-12T16:15:22.048Z,44.49
2023-04-12T16:17:53.287Z,44.53
2023-04-12T16:20:22.475Z,44.29
2023-04-12T16:22:54.616Z,44.46
2023-04-12T16:25:23.385Z,44.76
2023-04-12T16:27:53.373Z,44.68
2023-04-12T16:30:22.873Z,44.74
2023-04-12T16:32:52.242Z,44.42
2023-04-12T16:35:20.266Z,44.27
2023-04-12T16:37:48.542Z,44.54
2023-04-12T16:40:18.189Z,44.50
2023-04-12T16:42:46.075Z,44.61
2023-04-12T16:45:15.322Z,45.07
2023-04-12T16:47:43.492Z,45.43
2023-04-12T16:50:13.468Z,45.64
2023-04-12T16:52:41.974Z,46.34
2023-04-12T16:55:12.323Z,46.62
2023-04-12T16:57:42.941Z,47.34
2023-04-12T17:00:20.641Z,47.59
2023-04-12T17:02:50.254Z,47.95
2023-04-12T17:05:19.879Z,48.48
2023-04-12T17:07:49.946Z,48.62
2023-04-12T17:10:18.638Z,49.01
2023-04-12T17:12:49.132Z,49.54
2023-04-12T17:15:18.612Z,50.03
2023-04-12T17:17:48.910Z,50.70
2023-04-12T17:20:17.380Z,50.91
2023-04-12T17:22:45.640Z,51.03
2023-04-12T17:25:14.131Z,51.27
2023-04-12T17:27:42.499Z,51.68
2023-04-12T17:30:13.185Z,51.92
2023-04-12T17:32:41.467Z,52.15
2023-04-12T17:35:10.134Z,52.36
2023-04-12T17:37:38.807Z,52.88
2023-04-12T17:40:10.434Z,52.96
2023-04-12T17:42:39.296Z,52.84
2023-04-12T17:45:11.076Z,53.05
2023-04-12T17:47:40.693Z,53.37
2023-04-12T17:50:11.265Z,53.54
2023-04-12T17:52:39.824Z,53.66
2023-04-12T17:55:10.145Z,53.84
2023-04-12T17:57:38.166Z,54.19
2023-04-12T18:00:09.508Z,54.68
2023-04-12T18:02:37.472Z,54.35
2023-04-12T18:05:07.754Z,55.10
2023-04-12T18:07:35.741Z,54.78
2023-04-12T18:10:03.788Z,55.22
2023-04-12T18:12:32.281Z,55.11
2023-04-12T18:15:00.158Z,55.49
2023-04-12T18:17:28.259Z,55.57
2023-04-12T18:19:56.316Z,55.96
2023-04-12T18:22:25.680Z,56.23
2023-04-12T18:24:54.610Z,55.95
2023-04-12T18:27:22.533Z,56.13
2023-04-12T18:29:50.410Z,56.53
2023-04-12T18:32:18.385Z,56.61
2023-04-12T18:34:46.347Z,56.63
2023-04-12T18:37:14.242Z,56.79
2023-04-12T18:39:43.608Z,57.05
2023-04-12T18:42:11.542Z,57.44
2023-04-12T18:44:40.594Z,57.81
2023-04-12T18:47:08.676Z,58.33
2023-04-12T18:49:36.746Z,58.48
2023-04-12T18:52:04.786Z,58.71
2023-04-12T18:54:32.761Z,58.76
2023-04-12T18:57:03.477Z,59.24
2023-04-12T18:59:32.101Z,59.47
2023-04-12T19:02:00.269Z,59.92
2023-04-12T19:04:28.371Z,59.81
2023-04-12T19:06:57.461Z,60.04
2023-04-12T19:09:25.498Z,60.29
2023-04-12T19:11:55.504Z,60.52
2023-04-12T19:14:25.272Z,60.92
2023-04-12T19:16:53.285Z,61.12
2023-04-12T19:19:21.380Z,61.32
2023-04-12T19:21:49.476Z,61.54
2023-04-12T19:24:17.549Z,61.69
2023-04-12T19:26:47.741Z,61.95
2023-04-12T19:29:16.085Z,62.06
2023-04-12T19:31:47.429Z,62.31
2023-04-12T19:34:17.949Z,62.56
2023-04-12T19:36:46.233Z,62.52
2023-04-12T19:39:15.753Z,63.14
2023-04-12T19:41:43.746Z,63.54
2023-04-12T19:44:12.031Z,63.34
2023-04-12T19:46:40.061Z,63.66
2023-04-12T19:49:09.626Z,63.67
2023-04-12T19:51:37.799Z,64.02
2023-04-12T19:54:05.751Z,64.45
2023-04-12T19:56:33.997Z,64.57
2023-04-12T19:59:02.647Z,64.53
2023-04-12T20:01:30.759Z,64.82
2023-04-12T20:03:58.861Z,64.95
2023-04-12T20:06:28.819Z,64.96
2023-04-12T20:08:57.068Z,65.11
2023-04-12T20:11:25.508Z,64.86
2023-04-12T20:13:53.370Z,65.17
2023-04-12T20:16:21.339Z,65.52
2023-04-12T20:18:51.038Z,65.66
2023-04-12T20:21:19.183Z,66.32
2023-04-12T20:23:51.077Z,66.91
2023-04-12T20:26:19.172Z,67.34
2023-04-12T20:28:47.006Z,67.38
2023-04-12T20:31:15.190Z,67.71
2023-04-12T20:33:43.314Z,68.02
2023-04-12T20:36:11.571Z,68.00
2023-04-12T20:38:39.917Z,68.66
2023-04-12T20:41:10.685Z,68.78
2023-04-12T20:43:45.152Z,69.10
2023-04-12T20:46:15.686Z,69.33
2023-04-12T20:48:43.761Z,69.32
2023-04-12T20:51:13.788Z,69.77
2023-04-12T20:53:43.680Z,69.78
2023-04-12T20:56:13.176Z,70.03
2023-04-12T20:58:42.041Z,69.88
2023-04-12T21:01:14.620Z,70.04
2023-04-12T21:03:43.732Z,69.86
2023-04-12T21:06:11.990Z,69.82
2023-04-12T21:08:39.978Z,70.06
2023-04-12T21:11:08.215Z,69.98
2023-04-12T21:13:37.491Z,69.89
2023-04-12T21:16:07.209Z,70.41
2023-04-12T21:18:36.297Z,70.13
2023-04-12T21:21:04.224Z,69.89
2023-04-12T21:23:32.067Z,70.24
2023-04-12T21:26:02.664Z,70.07
2023-04-12T21:28:31.062Z,70.21
2023-04-12T21:31:00.340Z,70.47
2023-04-12T21:33:28.246Z,70.34
2023-04-12T21:35:57.278Z,70.46
2023-04-12T21:38:25.656Z,70.78
2023-04-12T21:40:57.448Z,71.06
2023-04-12T21:43:25.503Z,70.92
2023-04-12T21:45:54.565Z,71.23
2023-04-12T21:48:23.999Z,71.63
2023-04-12T21:50:52.396Z,71.76
2023-04-12T21:53:20.287Z,71.79
2023-04-12T21:55:49.758Z,71.98
2023-04-12T21:58:18.180Z,72.07
2023-04-12T22:00:46.125Z,72.71
2023-04-12T22:03:14.411Z,72.45
2023-04-12T22:05:48.666Z,72.78
2023-04-12T22:08:23.883Z,72.53
2023-04-12T22:10:54.069Z,72.71
2023-04-12T22:13:24.899Z,72.86
2023-04-12T22:15:53.717Z,72.97
2023-04-12T22:18:22.120Z,72.88
2023-04-12T22:20:51.495Z,73.18
2023-04-12T22:23:19.496Z,72.96
2023-04-12T22:25:47.367Z,72.93
2023-04-12T22:28:17.230Z,72.96
2023-04-12T22:30:46.866Z,73.05
2023-04-12T22:33:16.127Z,73.28
2023-04-12T22:35:44.255Z,73.38
2023-04-12T22:38:14.875Z,73.26
2023-04-12T22:40:42.765Z,73.61
2023-04-12T22:43:18.100Z,73.38
2023-04-12T22:45:47.095Z,73.59
2023-04-12T22:48:15.924Z,73.60
2023-04-12T22:50:45.241Z,73.34
2023-04-12T22:53:15.945Z,74.00
2023-04-12T22:55:45.031Z,73.98
2023-04-12T22:58:13.028Z,74.04
2023-04-12T23:00:41.046Z,73.77
2023-04-12T23:03:10.919Z,74.06
2023-04-12T23:05:42.382Z,73.81
2023-04-12T23:08:10.420Z,73.96
2023-04-12T23:10:40.366Z,73.64
2023-04-12T23:13:08.300Z,73.98
2023-04-12T23:15:36.363Z,73.53
2023-04-12T23:18:05.202Z,73.79
2023-04-12T23:20:35.387Z,73.52
2023-04-12T23:23:03.626Z,74.01
2023-04-12T23:25:39.520Z,73.54
2023-04-12T23:28:13.542Z,73.85
2023-04-12T23:30:44.168Z,73.97
2023-04-12T23:33:12.719Z,73.97
2023-04-12T23:35:41.689Z,73.85
2023-04-12T23:38:11.079Z,74.01
2023-04-12T23:40:38.956Z,73.97
2023-04-12T23:43:09.041Z,74.07
2023-04-12T23:45:37.123Z,74.23
2023-04-12T23:48:05.817Z,74.14
2023-04-12T23:50:33.835Z,74.31
2023-04-12T23:53:01.910Z,74.46
2023-04-12T23:55:29.828Z,74.83
2023-04-12T23:57:57.744Z,74.86
